createdAt,value
2022-11-20T00:01:29.483Z,2.73
2022-11-20T00:03:58.760Z,2.40
2022-11-20T00:06:26.616Z,2.20
2022-11-20T00:08:56.077Z,2.33
2022-11-20T00:11:24.622Z,3.03
2022-11-20T00:13:54.047Z,2.60
2022-11-20T00:16:25.512Z,2.60
2022-11-20T00:18:53.006Z,2.40
2022-11-20T00:21:25.606Z,2.87
2022-11-20T00:23:55.325Z,2.53
2022-11-20T00:26:23.786Z,2.20
2022-11-20T00:28:55.669Z,2.70
2022-11-20T00:31:23.069Z,2.43
2022-11-20T00:33:50.255Z,2.27
2022-11-20T00:36:22.501Z,2.50
2022-11-20T00:38:53.412Z,2.97
2022-11-20T00:41:20.237Z,2.47
2022-11-20T00:43:47.188Z,2.37
2022-11-20T00:46:19.695Z,2.57
2022-11-20T00:48:47.218Z,2.27
2022-11-20T00:51:17.631Z,2.30
2022-11-20T00:53:44.577Z,2.23
2022-11-20T00:56:13.581Z,2.83
2022-11-20T00:58:43.066Z,2.27
2022-11-20T01:01:16.216Z,2.67
2022-11-20T01:03:45.471Z,2.33
2022-11-20T01:06:34.002Z,2.70
2022-11-20T01:09:03.943Z,2.83
2022-11-20T01:11:33.632Z,2.67
2022-11-20T01:14:02.885Z,2.70
2022-11-20T01:16:38.088Z,2.57
2022-11-20T01:19:07.264Z,2.97
2022-11-20T01:21:37.228Z,2.20
2022-11-20T01:24:05.992Z,2.40
2022-11-20T01:26:36.572Z,2.90
2022-11-20T01:29:04.500Z,2.93
2022-11-20T01:31:34.414Z,2.33
2022-11-20T01:34:06.565Z,2.40
2022-11-20T01:36:36.579Z,2.30
2022-11-20T01:39:06.371Z,2.43
2022-11-20T01:41:53.480Z,2.30
2022-11-20T01:44:23.602Z,1.50
2022-11-20T01:47:10.386Z,2.23
2022-11-20T01:49:47.693Z,2.20
2022-11-20T01:52:20.914Z,1.80
2022-11-20T01:55:01.885Z,2.00
2022-11-20T01:57:32.633Z,3.00
2022-11-20T02:00:06.926Z,2.10
2022-11-20T02:02:34.024Z,2.60
2022-11-20T02:05:10.868Z,2.30
2022-11-20T02:07:38.721Z,2.30
2022-11-20T02:10:05.640Z,2.23
2022-11-20T02:12:51.284Z,2.20
2022-11-20T02:15:18.014Z,2.20
2022-11-20T02:17:44.755Z,2.30
2022-11-20T02:20:12.421Z,2.37
2022-11-20T02:22:52.120Z,2.20
2022-11-20T02:25:20.347Z,2.20
2022-11-20T02:27:47.627Z,2.27
2022-11-20T02:30:14.508Z,2.80
2022-11-20T02:32:41.205Z,2.27
2022-11-20T02:35:27.847Z,2.47
2022-11-20T02:37:56.886Z,2.17
2022-11-20T02:40:24.154Z,2.00
2022-11-20T02:42:57.668Z,1.90
2022-11-20T02:45:25.472Z,2.10
2022-11-20T02:47:53.033Z,2.23
2022-11-20T02:50:19.951Z,1.85
2022-11-20T02:52:46.603Z,2.40
2022-11-20T02:55:13.687Z,2.70
2022-11-20T02:57:40.398Z,2.23
2022-11-20T03:00:07.991Z,2.20
2022-11-20T03:02:34.933Z,2.33
2022-11-20T03:05:01.859Z,1.90
2022-11-20T03:07:28.632Z,2.28
2022-11-20T03:09:55.316Z,2.17
2022-11-20T03:12:22.235Z,2.60
2022-11-20T03:14:52.890Z,2.50
2022-11-20T03:17:20.254Z,2.40
2022-11-20T03:19:46.973Z,2.47
2022-11-20T03:22:13.687Z,2.30
2022-11-20T03:24:40.339Z,3.03
2022-11-20T03:27:07.058Z,2.40
2022-11-20T03:29:33.722Z,2.23
2022-11-20T03:32:00.423Z,2.65
2022-11-20T03:34:27.119Z,2.60
2022-11-20T03:36:53.755Z,2.42
2022-11-20T03:39:20.719Z,2.70
2022-11-20T03:41:47.764Z,2.75
2022-11-20T03:44:14.479Z,2.60
2022-11-20T03:46:41.221Z,2.73
2022-11-20T03:49:07.900Z,3.00
2022-11-20T03:51:36.732Z,2.47
2022-11-20T03:54:08.857Z,2.50
2022-11-20T03:56:38.760Z,2.20
2022-11-20T03:59:06.447Z,2.37
2022-11-20T04:01:38.335Z,2.27
2022-11-20T04:04:05.857Z,2.65
2022-11-20T04:06:37.859Z,2.60
2022-11-20T04:09:05.554Z,2.40
2022-11-20T04:11:34.580Z,2.10
2022-11-20T04:14:04.252Z,2.50
2022-11-20T04:16:36.051Z,2.40
2022-11-20T04:19:05.356Z,2.60
2022-11-20T04:21:32.348Z,2.40
2022-11-20T04:24:02.414Z,2.80
2022-11-20T04:26:30.644Z,2.20
2022-11-20T04:28:58.281Z,2.57
2022-11-20T04:31:28.323Z,2.90
2022-11-20T04:33:55.204Z,2.00
2022-11-20T04:36:25.816Z,2.17
2022-11-20T04:38:57.056Z,2.57
2022-11-20T04:41:26.739Z,2.53
2022-11-20T04:44:00.344Z,2.70
2022-11-20T04:46:28.375Z,2.80
2022-11-20T04:48:55.481Z,2.50
2022-11-20T04:51:22.411Z,2.50
2022-11-20T04:53:49.199Z,1.83
2022-11-20T04:56:16.288Z,3.00
2022-11-20T04:58:42.963Z,1.93
2022-11-20T05:01:24.675Z,2.20
2022-11-20T05:03:51.960Z,2.40
2022-11-20T05:06:21.720Z,2.30
2022-11-20T05:08:48.475Z,2.47
2022-11-20T05:11:18.164Z,2.70
2022-11-20T05:13:45.033Z,2.70
2022-11-20T05:16:21.024Z,2.73
2022-11-20T05:18:47.993Z,2.13
2022-11-20T05:21:15.239Z,2.47
2022-11-20T05:23:43.022Z,2.23
2022-11-20T05:26:17.302Z,2.63
2022-11-20T05:28:44.363Z,2.23
2022-11-20T05:31:14.057Z,2.17
2022-11-20T05:33:42.294Z,2.73
2022-11-20T05:36:10.252Z,2.50
2022-11-20T05:38:36.913Z,2.90
2022-11-20T05:41:07.370Z,2.50
2022-11-20T05:43:38.732Z,2.50
2022-11-20T05:46:07.009Z,2.47
2022-11-20T05:48:34.232Z,2.60
2022-11-20T05:51:03.235Z,2.90
2022-11-20T05:53:30.316Z,2.70
2022-11-20T05:56:01.116Z,2.50
2022-11-20T05:58:28.775Z,2.80
2022-11-20T06:00:55.660Z,3.40
2022-11-20T06:03:22.573Z,2.77
2022-11-20T06:05:49.341Z,2.40
2022-11-20T06:08:16.184Z,2.72
2022-11-20T06:10:42.845Z,2.40
2022-11-20T06:13:09.535Z,2.87
2022-11-20T06:15:36.222Z,2.50
2022-11-20T06:18:02.922Z,2.83
2022-11-20T06:20:29.646Z,2.45
2022-11-20T06:22:56.328Z,2.55
2022-11-20T06:25:22.975Z,2.53
2022-11-20T06:27:49.712Z,2.40
2022-11-20T06:30:16.622Z,2.65
2022-11-20T06:32:43.607Z,2.40
2022-11-20T06:35:10.654Z,2.60
2022-11-20T06:37:37.302Z,2.38
2022-11-20T06:40:04.350Z,2.80
2022-11-20T06:42:31.035Z,2.60
2022-11-20T06:44:58.071Z,2.10
2022-11-20T06:47:24.789Z,3.17
2022-11-20T06:49:51.705Z,2.25
2022-11-20T06:52:18.390Z,2.53
2022-11-20T06:54:45.119Z,3.00
2022-11-20T06:57:11.834Z,2.60
2022-11-20T06:59:38.708Z,2.03
2022-11-20T07:02:05.412Z,2.25
2022-11-20T07:04:32.052Z,2.40
2022-11-20T07:06:58.736Z,2.10
2022-11-20T07:09:25.710Z,1.97
2022-11-20T07:11:52.535Z,1.90
2022-11-20T07:14:19.184Z,1.50
2022-11-20T07:16:45.952Z,1.57
2022-11-20T07:19:12.837Z,2.53
2022-11-20T07:21:39.577Z,1.60
2022-11-20T07:24:06.295Z,1.67
2022-11-20T07:26:33.189Z,1.90
2022-11-20T07:28:59.894Z,1.90
2022-11-20T07:31:26.666Z,2.00
2022-11-20T07:33:53.365Z,2.20
2022-11-20T07:36:21.162Z,2.10
2022-11-20T07:38:47.940Z,1.88
2022-11-20T07:41:14.576Z,2.00
2022-11-20T07:43:41.784Z,2.05
2022-11-20T07:46:08.591Z,2.40
2022-11-20T07:48:35.819Z,2.50
2022-11-20T07:51:02.790Z,2.15
2022-11-20T07:53:29.496Z,2.22
2022-11-20T07:55:56.250Z,2.03
2022-11-20T07:58:23.318Z,2.30
2022-11-20T08:00:50.345Z,1.92
2022-11-20T08:03:24.093Z,2.35
2022-11-20T08:05:51.531Z,1.90
2022-11-20T08:08:18.242Z,2.13
2022-11-20T08:10:44.892Z,2.60
2022-11-20T08:13:30.265Z,1.80
2022-11-20T08:15:56.994Z,1.88
2022-11-20T08:18:32.424Z,1.60
2022-11-20T08:21:03.479Z,2.47
2022-11-20T08:23:30.263Z,1.50
2022-11-20T08:25:56.961Z,2.28
2022-11-20T08:28:23.635Z,2.13
2022-11-20T08:30:51.135Z,1.80
2022-11-20T08:33:18.867Z,2.00
2022-11-20T08:35:45.753Z,1.93
2022-11-20T08:38:12.553Z,2.03
2022-11-20T08:40:39.478Z,2.07
2022-11-20T08:43:06.322Z,1.90
2022-11-20T08:45:35.046Z,1.90
2022-11-20T08:48:05.602Z,1.90
2022-11-20T08:50:34.113Z,1.80
2022-11-20T08:53:07.914Z,1.87
2022-11-20T08:55:36.676Z,1.87
2022-11-20T08:58:07.870Z,1.80
2022-11-20T09:00:35.217Z,2.30
2022-11-20T09:03:02.747Z,1.80
2022-11-20T09:05:29.719Z,1.93
2022-11-20T09:08:00.116Z,2.00
2022-11-20T09:10:29.959Z,2.20
2022-11-20T09:12:57.123Z,1.73
2022-11-20T09:15:25.021Z,1.90
2022-11-20T09:18:00.662Z,2.03
2022-11-20T09:20:29.737Z,1.87
2022-11-20T09:22:57.242Z,1.70
2022-11-20T09:25:24.360Z,1.70
2022-11-20T09:27:58.101Z,1.50
2022-11-20T09:30:24.917Z,1.90
2022-11-20T09:32:51.592Z,1.47
2022-11-20T09:35:18.868Z,2.03
2022-11-20T09:37:46.092Z,1.87
2022-11-20T09:40:27.610Z,1.53
2022-11-20T09:43:20.199Z,1.57
2022-11-20T09:46:20.982Z,1.83
2022-11-20T09:48:56.943Z,1.80
2022-11-20T09:51:39.042Z,1.40
2022-11-20T09:54:30.264Z,1.30
2022-11-20T09:57:02.867Z,1.43
2022-11-20T09:59:35.693Z,1.10
2022-11-20T10:02:07.617Z,1.83
2022-11-20T10:04:39.648Z,1.30
2022-11-20T10:07:32.590Z,2.50
2022-11-20T10:10:00.241Z,1.30
2022-11-20T10:12:52.398Z,1.40
2022-11-20T10:15:31.104Z,1.50
2022-11-20T10:18:01.168Z,1.30
2022-11-20T10:20:44.615Z,1.73
2022-11-20T10:23:32.514Z,1.20
2022-11-20T10:26:18.381Z,1.70
2022-11-20T10:28:58.755Z,1.73
2022-11-20T10:31:43.853Z,1.00
2022-11-20T10:34:23.342Z,1.20
2022-11-20T10:37:23.240Z,1.07
2022-11-20T10:39:57.963Z,1.70
2022-11-20T10:42:35.578Z,1.10
2022-11-20T10:45:25.613Z,1.03
2022-11-20T10:47:55.560Z,1.00
2022-11-20T10:50:23.827Z,1.17
2022-11-20T10:53:08.383Z,1.20
2022-11-20T10:56:01.973Z,3.03
2022-11-20T10:59:06.939Z,3.67
2022-11-20T11:01:42.121Z,1.40
2022-11-20T11:04:30.202Z,1.60
2022-11-20T11:07:13.246Z,1.47
2022-11-20T11:09:45.224Z,1.03
2022-11-20T11:12:12.429Z,1.57
2022-11-20T11:14:46.424Z,1.60
2022-11-20T11:17:23.872Z,1.60
2022-11-20T11:20:07.969Z,1.47
2022-11-20T11:22:43.277Z,0.90
2022-11-20T11:25:21.169Z,1.43
2022-11-20T11:27:49.297Z,1.20
2022-11-20T11:30:18.425Z,1.13
2022-11-20T11:32:46.260Z,1.57
2022-11-20T11:35:29.661Z,1.03
2022-11-20T11:38:08.184Z,1.33
2022-11-20T11:40:37.622Z,1.20
2022-11-20T11:43:28.115Z,1.30
2022-11-20T11:45:56.176Z,1.70
2022-11-20T11:48:23.204Z,1.00
2022-11-20T11:50:51.311Z,1.00
2022-11-20T11:53:22.551Z,1.53
2022-11-20T11:56:09.096Z,1.20
2022-11-20T11:58:47.023Z,1.20
2022-11-20T12:01:39.398Z,1.17
2022-11-20T12:04:30.511Z,1.07
2022-11-20T12:07:31.106Z,1.20
2022-11-20T12:09:57.928Z,1.40
2022-11-20T12:12:31.141Z,1.30
2022-11-20T12:14:59.412Z,0.93
2022-11-20T12:17:26.071Z,1.20
2022-11-20T12:19:52.869Z,1.10
2022-11-20T12:22:48.072Z,1.20
2022-11-20T12:25:28.092Z,1.40
2022-11-20T12:28:16.163Z,1.00
2022-11-20T12:31:12.066Z,1.37
2022-11-20T12:33:56.883Z,0.83
2022-11-20T12:36:30.786Z,2.03
2022-11-20T12:39:09.804Z,3.07
2022-11-20T12:42:01.195Z,2.03
2022-11-20T12:45:08.200Z,3.20
2022-11-20T12:48:03.755Z,1.83
2022-11-20T12:51:14.671Z,2.70
2022-11-20T12:54:27.899Z,1.40
2022-11-20T12:57:04.053Z,1.00
2022-11-20T13:00:03.316Z,1.40
2022-11-20T13:02:55.086Z,1.60
2022-11-20T13:05:51.931Z,1.40
2022-11-20T13:08:46.388Z,1.70
2022-11-20T13:11:38.966Z,1.83
2022-11-20T13:14:29.513Z,1.60
2022-11-20T13:17:18.275Z,3.53
2022-11-20T13:19:53.793Z,1.70
2022-11-20T13:22:44.137Z,1.80
2022-11-20T13:25:16.334Z,1.87
2022-11-20T13:27:50.224Z,1.40
2022-11-20T13:30:19.736Z,1.00
2022-11-20T13:33:04.868Z,1.30
2022-11-20T13:35:35.847Z,1.10
2022-11-20T13:38:12.318Z,1.50
2022-11-20T13:40:59.590Z,1.60
2022-11-20T13:43:39.449Z,1.20
2022-11-20T13:46:08.845Z,1.30
2022-11-20T13:48:47.524Z,1.20
2022-11-20T13:51:35.930Z,1.13
2022-11-20T13:54:24.171Z,1.20
2022-11-20T13:57:03.377Z,1.10
2022-11-20T13:59:41.239Z,1.03
2022-11-20T14:02:20.829Z,1.40
2022-11-20T14:04:50.432Z,1.30
2022-11-20T14:07:19.698Z,1.67
2022-11-20T14:09:56.977Z,1.60
2022-11-20T14:12:30.280Z,1.50
2022-11-20T14:14:57.594Z,1.70
2022-11-20T14:17:29.974Z,1.70
2022-11-20T14:20:02.109Z,1.60
2022-11-20T14:22:29.456Z,2.10
2022-11-20T14:25:04.472Z,2.47
2022-11-20T14:27:35.623Z,2.00
2022-11-20T14:30:03.123Z,1.60
2022-11-20T14:32:31.426Z,1.80
2022-11-20T14:35:04.235Z,1.37
2022-11-20T14:37:37.295Z,1.40
2022-11-20T14:40:06.692Z,1.50
2022-11-20T14:42:34.558Z,1.23
2022-11-20T14:45:02.684Z,1.87
2022-11-20T14:47:32.008Z,1.20
2022-11-20T14:50:02.659Z,1.27
2022-11-20T14:52:32.611Z,1.50
2022-11-20T14:55:00.643Z,1.40
2022-11-20T14:57:29.683Z,1.20
2022-11-20T15:00:09.858Z,1.30
2022-11-20T15:02:43.869Z,2.90
2022-11-20T15:05:10.844Z,1.90
2022-11-20T15:07:41.242Z,1.80
2022-11-20T15:10:22.383Z,4.30
2022-11-20T15:12:51.779Z,1.80
2022-11-20T15:15:26.700Z,1.30
2022-11-20T15:17:53.408Z,2.47
2022-11-20T15:20:21.528Z,3.90
2022-11-20T15:22:48.299Z,5.33
2022-11-20T15:25:17.031Z,2.50
2022-11-20T15:27:45.020Z,7.63
2022-11-20T15:30:20.278Z,2.70
2022-11-20T15:32:47.585Z,2.70
2022-11-20T15:35:16.056Z,1.70
2022-11-20T15:37:43.132Z,3.40
2022-11-20T15:40:10.954Z,2.20
2022-11-20T15:42:37.714Z,7.40
2022-11-20T15:45:04.716Z,7.87
2022-11-20T15:47:35.104Z,21.73
2022-11-20T15:50:02.093Z,5.70
2022-11-20T15:52:36.292Z,14.03
2022-11-20T15:55:11.309Z,10.63
2022-11-20T15:57:37.970Z,9.40
2022-11-20T16:00:05.169Z,3.67
2022-11-20T16:02:31.876Z,2.10
2022-11-20T16:04:58.537Z,4.33
2022-11-20T16:07:25.235Z,1.90
2022-11-20T16:09:52.009Z,1.33
2022-11-20T16:12:38.668Z,1.30
2022-11-20T16:15:24.535Z,2.00
2022-11-20T16:17:51.223Z,1.30
2022-11-20T16:20:17.956Z,1.40
2022-11-20T16:22:44.637Z,1.20
2022-11-20T16:25:11.307Z,2.40
2022-11-20T16:27:37.951Z,3.53
2022-11-20T16:30:05.040Z,1.67
2022-11-20T16:32:32.159Z,2.03
2022-11-20T16:34:58.813Z,2.20
2022-11-20T16:37:25.472Z,1.67
2022-11-20T16:39:52.116Z,3.70
2022-11-20T16:42:18.768Z,12.87
2022-11-20T16:44:47.630Z,3.57
2022-11-20T16:47:14.412Z,5.70
2022-11-20T16:49:41.080Z,3.67
2022-11-20T16:52:07.839Z,2.60
2022-11-20T16:54:34.559Z,1.97
2022-11-20T16:57:01.268Z,1.63
2022-11-20T16:59:27.928Z,1.87
2022-11-20T17:01:54.613Z,1.73
2022-11-20T17:04:21.827Z,1.57
2022-11-20T17:06:48.783Z,2.30
2022-11-20T17:09:15.477Z,2.27
2022-11-20T17:11:42.362Z,1.70
2022-11-20T17:14:11.502Z,1.57
2022-11-20T17:16:38.370Z,2.33
2022-11-20T17:19:05.637Z,4.13
2022-11-20T17:21:35.887Z,6.83
2022-11-20T17:24:05.181Z,11.00
2022-11-20T17:26:32.541Z,14.33
2022-11-20T17:29:21.579Z,26.07
2022-11-20T17:31:48.816Z,28.47
2022-11-20T17:34:16.505Z,26.47
2022-11-20T17:36:45.945Z,25.73
2022-11-20T17:39:14.902Z,20.17
2022-11-20T17:41:41.861Z,17.73
2022-11-20T17:44:12.840Z,12.20
2022-11-20T17:46:40.152Z,11.03
2022-11-20T17:49:07.447Z,9.20
2022-11-20T17:51:35.337Z,6.30
2022-11-20T17:54:05.059Z,5.90
2022-11-20T17:56:52.312Z,6.70
2022-11-20T17:59:19.554Z,6.30
2022-11-20T18:01:46.604Z,5.80
2022-11-20T18:04:13.724Z,5.20
2022-11-20T18:06:41.836Z,6.17
2022-11-20T18:09:08.510Z,4.73
2022-11-20T18:11:40.747Z,6.90
2022-11-20T18:14:26.502Z,6.80
2022-11-20T18:16:58.533Z,5.57
2022-11-20T18:19:32.217Z,5.70
2022-11-20T18:22:01.701Z,5.53
2022-11-20T18:24:28.799Z,6.13
2022-11-20T18:26:55.520Z,4.53
2022-11-20T18:29:22.564Z,3.97
2022-11-20T18:31:49.989Z,4.03
2022-11-20T18:34:17.329Z,5.00
2022-11-20T18:36:45.520Z,4.10
2022-11-20T18:39:13.685Z,4.40
2022-11-20T18:41:59.462Z,5.33
2022-11-20T18:44:47.484Z,4.20
2022-11-20T18:47:16.693Z,8.50
2022-11-20T18:49:50.745Z,8.67
2022-11-20T18:52:23.961Z,7.97
2022-11-20T18:54:51.467Z,6.30
2022-11-20T18:57:23.809Z,7.15
2022-11-20T18:59:51.044Z,6.88
2022-11-20T19:02:20.129Z,6.37
2022-11-20T19:04:47.835Z,5.17
2022-11-20T19:07:15.896Z,6.05
2022-11-20T19:09:44.518Z,4.00
2022-11-20T19:12:12.929Z,3.80
2022-11-20T19:14:39.758Z,4.00
2022-11-20T19:17:07.723Z,4.00
2022-11-20T19:19:35.163Z,4.65
2022-11-20T19:22:01.911Z,4.30
2022-11-20T19:24:28.798Z,4.32
2022-11-20T19:26:56.415Z,5.10
2022-11-20T19:29:24.837Z,6.38
2022-11-20T19:31:52.249Z,5.60
2022-11-20T19:34:19.168Z,7.25
2022-11-20T19:36:46.538Z,9.30
2022-11-20T19:39:13.975Z,5.90
2022-11-20T19:41:41.454Z,4.57
2022-11-20T19:44:11.439Z,5.50
2022-11-20T19:46:39.286Z,7.80
2022-11-20T19:49:10.024Z,5.03
2022-11-20T19:51:38.922Z,7.97
2022-11-20T19:54:06.444Z,10.20
2022-11-20T19:56:34.007Z,8.82
2022-11-20T19:59:01.771Z,4.57
2022-11-20T20:01:30.951Z,4.27
2022-11-20T20:04:02.508Z,4.10
2022-11-20T20:06:30.145Z,3.28
2022-11-20T20:09:01.913Z,2.80
2022-11-20T20:11:31.056Z,2.55
2022-11-20T20:14:00.019Z,3.20
2022-11-20T20:16:28.091Z,3.20
2022-11-20T20:19:01.293Z,3.10
2022-11-20T20:21:30.368Z,3.17
2022-11-20T20:23:57.715Z,3.03
2022-11-20T20:26:25.638Z,2.92
2022-11-20T20:28:52.503Z,2.90
2022-11-20T20:31:23.147Z,2.65
2022-11-20T20:33:49.947Z,2.60
2022-11-20T20:36:19.090Z,1.98
2022-11-20T20:38:46.497Z,2.00
2022-11-20T20:41:20.055Z,1.67
2022-11-20T20:44:05.679Z,4.55
2022-11-20T20:46:32.360Z,10.80
2022-11-20T20:48:59.204Z,11.88
2022-11-20T20:51:26.253Z,4.63
2022-11-20T20:53:53.818Z,2.57
2022-11-20T20:56:21.226Z,2.10
2022-11-20T20:58:48.022Z,1.98
2022-11-20T21:01:16.818Z,2.00
2022-11-20T21:03:43.704Z,2.40
2022-11-20T21:06:11.677Z,2.80
2022-11-20T21:08:41.138Z,2.08
2022-11-20T21:11:13.872Z,2.00
2022-11-20T21:13:43.068Z,1.95
2022-11-20T21:16:11.925Z,2.28
2022-11-20T21:18:38.837Z,2.13
2022-11-20T21:21:30.247Z,2.50
2022-11-20T21:23:57.268Z,2.10
2022-11-20T21:26:24.557Z,1.98
2022-11-20T21:28:51.205Z,2.42
2022-11-20T21:31:24.712Z,2.85
2022-11-20T21:33:53.477Z,2.00
2022-11-20T21:36:22.248Z,2.08
2022-11-20T21:38:51.265Z,2.15
2022-11-20T21:41:18.027Z,2.10
2022-11-20T21:43:44.723Z,2.40
2022-11-20T21:46:16.998Z,1.90
2022-11-20T21:48:45.338Z,1.83
2022-11-20T21:51:13.272Z,3.30
2022-11-20T21:53:40.743Z,3.90
2022-11-20T21:56:09.234Z,2.08
2022-11-20T21:58:37.196Z,1.95
2022-11-20T22:01:11.009Z,2.05
2022-11-20T22:03:38.420Z,2.13
2022-11-20T22:06:06.710Z,2.15
2022-11-20T22:08:38.215Z,1.45
2022-11-20T22:11:08.111Z,1.13
2022-11-20T22:13:53.939Z,1.80
2022-11-20T22:16:21.038Z,1.30
2022-11-20T22:18:56.170Z,1.40
2022-11-20T22:21:28.794Z,1.35
2022-11-20T22:23:55.948Z,1.20
2022-11-20T22:26:28.117Z,1.05
2022-11-20T22:28:57.781Z,1.00
2022-11-20T22:31:27.225Z,1.60
2022-11-20T22:33:54.277Z,1.45
2022-11-20T22:36:28.419Z,1.50
2022-11-20T22:38:56.090Z,1.30
2022-11-20T22:41:26.986Z,1.40
2022-11-20T22:43:56.481Z,1.20
2022-11-20T22:46:24.014Z,1.33
2022-11-20T22:48:53.065Z,1.40
2022-11-20T22:51:25.646Z,1.17
2022-11-20T22:53:52.558Z,1.55
2022-11-20T22:56:19.857Z,1.30
2022-11-20T22:58:48.834Z,1.77
2022-11-20T23:01:16.530Z,1.50
2022-11-20T23:03:49.315Z,1.65
2022-11-20T23:06:18.380Z,1.40
2022-11-20T23:08:45.708Z,1.90
2022-11-20T23:11:15.408Z,1.40
2022-11-20T23:13:42.976Z,1.75
2022-11-20T23:16:10.996Z,1.40
2022-11-20T23:18:38.755Z,1.65
2022-11-20T23:21:15.533Z,1.42
2022-11-20T23:23:43.134Z,1.25
2022-11-20T23:26:14.575Z,1.30
2022-11-20T23:28:42.200Z,1.23
2022-11-20T23:31:10.575Z,1.48
2022-11-20T23:33:41.779Z,1.45
2022-11-20T23:36:09.196Z,1.50
2022-11-20T23:38:36.136Z,1.60
2022-11-20T23:41:03.501Z,1.50
2022-11-20T23:43:30.186Z,1.70
2022-11-20T23:45:58.845Z,1.55
2022-11-20T23:48:28.243Z,1.20
2022-11-20T23:50:54.940Z,2.30
2022-11-20T23:53:22.145Z,3.13
2022-11-20T23:55:54.121Z,3.05
2022-11-20T23:58:22.362Z,3.05
